Flight Track Log - Related Links

Times and Time Zones

All times are in EDT time to prevent confusion due to time zone crossing. See the SKW7367 flight status page for this flight to view local times or setup timezone preferences in your user account.

Time Position Orientation Groundspeed Altitude Reporting Facility
EDT Latitude Longitude Course Direction KTS MPH feet Rate Location/Type
Wed 04:10:38 PM 42.2081 -83.3675 228° Southwest 147 169 1,300  Level Cleveland Center
Wed 04:11:45 PM 42.1703 -83.4239 228° Southwest 217 250 3,600 1,957 Climbing Cleveland Center
Wed 04:12:10 PM 42.1578 -83.4386 221° Southwest 220 253 4,300 2,571 Climbing Cleveland Center
Wed 04:12:41 PM 42.1419 -83.4903 248° West 263 303 6,000 2,613 Climbing Cleveland Center
Wed 04:13:12 PM 42.1569 -83.5211 303° West 262 302 7,000 2,951 Climbing Cleveland Center
Wed 04:13:42 PM 42.1806 -83.5833 297° West 284 327 9,000 3,000 Climbing Cleveland Center
Wed 04:14:14 PM 42.1989 -83.6153 308° West 283 326 10,100 2,361 Climbing Cleveland Center
Wed 04:14:43 PM 42.2503 -83.6300 348° North 311 358 11,400 2,129 Climbing Cleveland Center
Wed 04:15:16 PM 42.2861 -83.6347 354° North 318 366 12,300 1,315 Climbing Cleveland Center
Wed 04:15:56 PM 42.3586 -83.6119 13° North 332 382 13,000 667 Climbing Cleveland Center
Wed 04:16:19 PM 42.3767 -83.6022 22° Northeast 335 386 13,000  Level Cleveland Center
Wed 04:17:21 PM 42.4639 -83.5642 18° North 327 376 13,000 532 Level Cleveland Center
Wed 04:18:23 PM 42.5672 -83.5186 18° North 324 373 14,100 968 Climbing Cleveland Center
Wed 04:19:25 PM 42.6583 -83.4764 19° North 340 391 15,000 435 Climbing Cleveland Center
Wed 04:20:27 PM 42.7492 -83.4381 17° North 343 395 15,000  Level Cleveland Center
Wed 04:21:29 PM 42.8431 -83.3958 18° North 352 405 15,000  Level Cleveland Center
Wed 04:22:31 PM 42.9469 -83.3672 11° North 384 442 15,000 -48 Level Cleveland Center
Wed 04:23:33 PM 43.0522 -83.3681 360° North 373 429 14,900 -48 Descending Cleveland Center
Wed 04:24:35 PM 43.1417 -83.4683 321° Northwest 356 410 14,900  Level Cleveland Center
Wed 04:25:37 PM 43.2078 -83.5697 312° West 356 410 14,900  Level Cleveland Center
Wed 04:26:39 PM 43.2731 -83.6683 312° West 351 404 14,900  Level Cleveland Center
Wed 04:27:41 PM 43.3378 -83.7700 311° West 354 407 14,900  Level Cleveland Center
Wed 04:28:51 PM 43.4167 -83.8986 310° West 354 407 14,900  Level Minneapolis Center
Wed 04:29:53 PM 43.4817 -83.9992 312° West 353 406 14,900  Level Minneapolis Center
Wed 04:30:55 PM 43.5650 -84.0628 331° Northwest 364 419 14,900 48 Level Minneapolis Center
Wed 04:31:57 PM 43.6608 -84.0333 13° North 360 414 15,000 48 Climbing Minneapolis Center
Wed 04:32:59 PM 43.7572 -84.0022 13° North 356 410 15,000  Level Minneapolis Center
Wed 04:34:01 PM 43.8750 -83.9633 13° North 361 415 15,000  Level Minneapolis Center
Wed 04:35:04 PM 43.9753 -83.9303 13° North 367 422 15,000  Level Minneapolis Center
Wed 04:36:06 PM 44.0825 -83.8950 13° North 373 429 15,000  Level Minneapolis Center
Wed 04:37:08 PM 44.1789 -83.8622 14° North 365 420 15,000  Level Minneapolis Center
Wed 04:38:12 PM 44.2828 -83.8283 13° North 357 411 15,000  Level Minneapolis Center
Wed 04:39:14 PM 44.3872 -83.7925 14° North 361 415 15,000 -677 Level Minneapolis Center
Wed 04:40:16 PM 44.4875 -83.7592 13° North 371 427 13,600 -1,645 Descending Minneapolis Center
Wed 04:41:18 PM 44.5950 -83.7225 14° North 373 429 11,600 -1,742 Descending Minneapolis Center
Wed 04:42:20 PM 44.6900 -83.6897 14° North 332 382 10,000 -1,548 Descending Minneapolis Center
Wed 04:43:22 PM 44.7686 -83.6725 North 293 337 8,400 -1,548 Descending Minneapolis Center
Wed 04:44:24 PM 44.8531 -83.6556 North 288 331 6,800 -1,500 Descending Minneapolis Center
Wed 04:45:26 PM 44.9289 -83.6378 North 283 326 5,300 -1,452 Descending Minneapolis Center
Wed 04:46:28 PM 45.0119 -83.6308 North 279 321 3,800 -960 Descending Minneapolis Center
Wed 04:47:31 PM 45.0758 -83.6281 North 233 268 3,300 -624 Descending Minneapolis Center
Wed 04:48:33 PM 45.1303 -83.6197 North 204 235 2,500 -871 Descending Minneapolis Center
Wed 04:49:35 PM 45.1233 -83.5617 100° East 161 185 1,500 -871 Descending Minneapolis Center
Wed 04:50:37 PM 45.0869 -83.5608 179° South 133 153 700 -774 Descending Minneapolis Center

Login

Don't have an account? Register now (free) for customized features, flight alerts, and more!